Time;durP1;ratioP1;P1;durP2;ratioP2;P2;SDS_P1;SDS_P2;PMS_P1;PMS_P2;Temp;Humidity;BMP_temperature;BMP_pressure;BME280_temperature;BME280_humidity;BME280_pressure;Samples;Min_cycle;Max_cycle;Signal;HPM_P1;HPM_P2
2022/12/23 00:00:59;;;;;;;28.77;21.13;;;;;;;9.35;100.00;100216.84;5055887;28;20036;-65
2022/12/23 00:03:30;;;;;;;33.20;22.67;;;;;;;9.29;100.00;100219.00;5050741;28;20041;-65
2022/12/23 00:05:56;;;;;;;32.42;24.20;;;;;;;9.29;100.00;100212.81;5050581;28;20080;-65
2022/12/23 00:08:22;;;;;;;43.05;24.88;;;;;;;9.33;100.00;100225.78;5051306;28;20025;-64
2022/12/23 00:10:50;;;;;;;37.28;25.40;;;;;;;9.33;100.00;100228.44;5050108;28;20083;-65
2022/12/23 00:16:06;;;;;;;39.45;27.25;;;;;;;9.33;100.00;100238.19;5040414;28;20071;-64
2022/12/23 00:18:32;;;;;;;49.22;28.40;;;;;;;9.30;100.00;100225.13;5051775;28;20027;-65
2022/12/23 00:21:14;;;;;;;46.25;27.75;;;;;;;9.36;100.00;100240.66;5049328;28;20041;-64
2022/12/23 00:23:43;;;;;;;44.58;27.92;;;;;;;9.36;100.00;100243.28;5051223;28;20053;-64
2022/12/23 00:26:14;;;;;;;44.05;28.23;;;;;;;9.36;100.00;100242.44;5051941;28;20025;-66
2022/12/23 00:28:40;;;;;;;45.83;28.40;;;;;;;9.38;100.00;100237.88;5051582;28;20025;-65
2022/12/23 00:31:07;;;;;;;43.33;30.55;;;;;;;9.32;100.00;100236.47;5051831;28;20036;-65
2022/12/23 00:33:40;;;;;;;44.30;31.33;;;;;;;9.36;100.00;100245.09;5050906;28;20063;-66
2022/12/23 00:36:22;;;;;;;52.65;30.98;;;;;;;9.34;100.00;100242.53;5051535;28;20049;-65
2022/12/23 00:44:16;;;;;;;46.72;28.45;;;;;;;9.37;100.00;100254.75;5038433;28;20400;-65
2022/12/23 00:46:42;;;;;;;44.70;28.80;;;;;;;9.34;100.00;100261.13;5051601;28;20029;-65
2022/12/23 00:51:54;;;;;;;50.20;30.05;;;;;;;9.38;100.00;100269.72;5050803;28;20040;-64
2022/12/23 00:54:22;;;;;;;44.72;29.65;;;;;;;9.36;100.00;100272.50;5032563;28;20396;-66
2022/12/23 00:56:47;;;;;;;46.25;29.63;;;;;;;9.36;100.00;100276.94;5050290;28;20029;-64
2022/12/23 00:59:13;;;;;;;49.30;30.67;;;;;;;9.37;100.00;100278.66;5033630;28;20480;-64
2022/12/23 01:07:07;;;;;;;52.95;31.70;;;;;;;9.36;100.00;100290.22;5050431;28;20099;-64
2022/12/23 01:09:33;;;;;;;49.30;32.28;;;;;;;9.31;100.00;100291.34;5050737;28;20415;-64
2022/12/23 01:12:01;;;;;;;45.22;33.05;;;;;;;9.37;100.00;100287.44;5033375;28;20438;-66
2022/12/23 01:14:27;;;;;;;46.25;32.05;;;;;;;9.37;100.00;100291.91;5030263;28;20436;-64
2022/12/23 01:16:53;;;;;;;48.10;33.15;;;;;;;9.37;100.00;100291.91;5030153;28;20025;-64
2022/12/23 01:19:18;;;;;;;44.83;32.58;;;;;;;9.39;100.00;100297.97;5046011;28;20052;-65
2022/12/23 01:21:44;;;;;;;44.85;32.78;;;;;;;9.39;100.00;100285.56;5051266;28;20025;-64
2022/12/23 01:24:12;;;;;;;48.22;32.20;;;;;;;9.39;100.00;100287.34;5049069;28;20024;-64
2022/12/23 01:26:38;;;;;;;48.35;33.40;;;;;;;9.38;100.00;100288.28;5051032;28;20163;-66
2022/12/23 01:29:04;;;;;;;50.92;34.38;;;;;;;9.38;100.00;100293.59;5049674;28;20025;-66
2022/12/23 01:31:29;;;;;;;53.38;35.30;;;;;;;9.38;100.00;100291.78;5051644;28;20036;-66
2022/12/23 01:33:55;;;;;;;53.47;36.85;;;;;;;9.40;100.00;100297.84;5035925;28;20045;-64
2022/12/23 01:36:23;;;;;;;52.78;36.20;;;;;;;9.37;100.00;100303.38;5054606;28;20020;-66
2022/12/23 01:38:50;;;;;;;53.15;36.47;;;;;;;9.36;100.00;100299.03;5054507;28;20029;-65
2022/12/23 01:44:50;;;;;;;57.45;35.85;;;;;;;9.39;100.00;100300.63;5054248;28;20400;-64
2022/12/23 01:47:24;;;;;;;54.92;35.83;;;;;;;9.39;100.00;100298.81;5054369;28;20086;-64
2022/12/23 01:49:55;;;;;;;56.33;37.15;;;;;;;9.35;100.00;100304.41;5054651;28;20035;-64
2022/12/23 01:52:21;;;;;;;52.55;38.58;;;;;;;9.35;100.00;100310.56;5054578;28;20056;-65
2022/12/23 01:54:49;;;;;;;54.67;36.83;;;;;;;9.32;100.00;100314.31;5052763;28;20102;-65
2022/12/23 01:57:14;;;;;;;53.45;36.80;;;;;;;9.36;100.00;100312.31;5054423;28;20036;-64
2022/12/23 02:05:11;;;;;;;56.15;36.83;;;;;;;9.35;100.00;100325.66;5063682;28;20047;-65
2022/12/23 02:10:29;;;;;;;44.20;34.53;;;;;;;9.31;100.00;100330.31;5066500;28;20112;-65
2022/12/23 02:13:07;;;;;;;46.30;35.35;;;;;;;9.31;100.00;100332.97;5040150;28;20809;-64
2022/12/23 02:16:17;;;;;;;46.40;35.00;;;;;;;9.33;100.00;100333.72;5055013;28;20028;-64
2022/12/23 02:18:51;;;;;;;44.72;35.40;;;;;;;9.30;100.00;100336.59;5057208;28;20072;-66
2022/12/23 02:21:35;;;;;;;43.75;34.17;;;;;;;9.39;100.00;100335.13;5053730;28;20029;-66
2022/12/23 02:24:33;;;;;;;48.17;35.88;;;;;;;9.32;100.00;100332.00;5052857;28;20171;-66
2022/12/23 02:27:08;;;;;;;46.38;34.67;;;;;;;9.31;100.00;100336.47;5019105;28;20045;-66
2022/12/23 02:30:01;;;;;;;46.42;34.40;;;;;;;9.30;100.00;100342.75;5033918;28;20055;-65
2022/12/23 02:32:34;;;;;;;44.13;34.22;;;;;;;9.27;100.00;100335.00;5044136;28;20032;-66
2022/12/23 02:35:25;;;;;;;41.88;32.78;;;;;;;9.31;100.00;100348.91;5053547;28;20426;-65
2022/12/23 02:37:59;;;;;;;48.10;33.92;;;;;;;9.33;100.00;100357.63;5053758;28;20052;-65
2022/12/23 02:41:00;;;;;;;43.50;33.33;;;;;;;9.33;100.00;100377.03;5052425;28;20040;-65
2022/12/23 02:43:45;;;;;;;43.80;34.33;;;;;;;9.29;100.00;100380.84;5051711;28;20384;-65
2022/12/23 02:46:29;;;;;;;46.53;33.38;;;;;;;9.29;100.00;100391.47;5053679;28;20498;-66
2022/12/23 02:49:17;;;;;;;38.85;31.75;;;;;;;9.32;100.00;100393.94;5053324;28;20025;-65
2022/12/23 02:51:49;;;;;;;46.25;33.72;;;;;;;9.29;100.00;100393.25;5052535;28;20044;-65
2022/12/23 02:54:21;;;;;;;40.75;32.45;;;;;;;9.29;100.00;100393.25;5052795;28;20026;-65
2022/12/23 02:56:53;;;;;;;43.22;32.72;;;;;;;9.27;100.00;100409.28;5052181;28;20582;-66
2022/12/23 02:59:33;;;;;;;41.95;31.63;;;;;;;9.28;100.00;100397.72;5052772;28;20080;-66
2022/12/23 03:01:59;;;;;;;39.55;30.42;;;;;;;9.28;100.00;100402.19;5053186;28;20480;-66
2022/12/23 03:04:25;;;;;;;38.95;29.85;;;;;;;9.27;100.00;100390.72;5052810;28;20017;-65
2022/12/23 03:06:53;;;;;;;36.45;29.85;;;;;;;9.26;100.00;100390.78;5053266;28;20037;-65
2022/12/23 03:09:43;;;;;;;36.88;28.98;;;;;;;9.26;100.00;100399.59;5052438;28;20033;-65
2022/12/23 03:12:17;;;;;;;39.30;29.40;;;;;;;9.26;100.00;100407.56;5053211;28;20553;-65
2022/12/23 03:15:06;;;;;;;38.50;29.30;;;;;;;9.27;100.00;100408.44;5052616;28;20541;-65
2022/12/23 03:17:42;;;;;;;42.38;30.08;;;;;;;9.27;100.00;100403.97;5051547;28;20056;-65
2022/12/23 03:20:27;;;;;;;36.22;28.95;;;;;;;9.24;100.00;100392.72;5057097;28;20115;-65
2022/12/23 03:23:00;;;;;;;37.63;28.33;;;;;;;9.28;100.00;100402.19;5068760;28;20049;-65
2022/12/23 03:25:36;;;;;;;36.60;28.65;;;;;;;9.29;100.00;100393.25;5053476;28;20024;-65
2022/12/23 03:28:21;;;;;;;40.10;29.55;;;;;;;9.33;100.00;100389.47;5052308;28;20464;-66
2022/12/23 03:30:53;;;;;;;43.45;29.23;;;;;;;9.26;100.00;100396.94;5056465;28;20070;-65
2022/12/23 03:33:34;;;;;;;43.70;29.52;;;;;;;9.24;100.00;100382.94;5060095;28;20103;-65
2022/12/23 03:36:11;;;;;;;42.40;29.77;;;;;;;9.29;100.00;100387.94;5049980;28;20053;-65
2022/12/23 03:38:40;;;;;;;43.15;30.50;;;;;;;9.27;100.00;100393.38;5050974;28;20033;-65
2022/12/23 03:41:12;;;;;;;43.80;30.30;;;;;;;9.26;100.00;100399.59;5048924;28;20024;-65
2022/12/23 03:43:44;;;;;;;43.35;30.27;;;;;;;9.19;100.00;100392.16;5052303;28;20423;-65
2022/12/23 03:46:20;;;;;;;38.85;28.90;;;;;;;9.25;100.00;100395.25;5052174;28;20052;-65
2022/12/23 03:48:52;;;;;;;39.65;29.08;;;;;;;9.26;100.00;100393.44;5052560;28;20074;-65
2022/12/23 03:51:27;;;;;;;43.80;30.10;;;;;;;9.27;100.00;100387.22;5052238;28;20041;-65
2022/12/23 03:54:01;;;;;;;40.72;29.35;;;;;;;9.23;100.00;100396.31;5051828;28;20025;-66
2022/12/23 03:56:51;;;;;;;41.05;29.33;;;;;;;9.22;100.00;100391.97;5052170;28;20052;-65
2022/12/23 03:59:23;;;;;;;42.50;30.63;;;;;;;9.23;100.00;100401.59;5050911;28;20017;-65
2022/12/23 04:02:10;;;;;;;43.42;29.73;;;;;;;9.23;100.00;100404.25;5051907;28;20021;-66
2022/12/23 04:04:50;;;;;;;42.75;31.08;;;;;;;9.20;100.00;100410.63;5051857;28;20059;-65
2022/12/23 04:07:39;;;;;;;44.95;30.63;;;;;;;9.24;100.00;100403.34;5052333;28;20020;-65
2022/12/23 04:10:08;;;;;;;51.53;31.67;;;;;;;9.22;100.00;100405.22;5050060;28;20110;-65
2022/12/23 04:12:35;;;;;;;44.90;31.42;;;;;;;9.21;100.00;100415.00;5051919;28;20476;-66
2022/12/23 04:15:00;;;;;;;45.97;32.10;;;;;;;9.19;100.00;100416.88;5051918;28;20048;-65
2022/12/23 04:17:27;;;;;;;49.45;33.03;;;;;;;9.20;100.00;100415.91;5051714;28;20040;-64
2022/12/23 04:19:53;;;;;;;50.08;33.42;;;;;;;9.21;100.00;100422.09;5051601;28;20028;-65
2022/12/23 04:22:21;;;;;;;54.30;34.00;;;;;;;9.17;100.00;100423.22;5051502;28;20082;-64
2022/12/23 04:24:49;;;;;;;54.38;32.95;;;;;;;9.19;100.00;100429.31;5033233;28;20029;-65
2022/12/23 04:27:15;;;;;;;47.60;33.88;;;;;;;9.18;100.00;100438.22;5050234;28;20033;-65
2022/12/23 04:29:42;;;;;;;45.45;32.53;;;;;;;9.16;100.00;100440.97;5050428;28;20037;-66
2022/12/23 04:32:07;;;;;;;50.53;32.72;;;;;;;9.17;100.00;100442.66;5050567;28;20061;-65
2022/12/23 04:34:33;;;;;;;47.28;31.80;;;;;;;9.16;100.00;100440.13;5033795;28;20485;-65
2022/12/23 04:37:01;;;;;;;43.90;29.92;;;;;;;9.17;100.00;100449.75;5049848;28;20086;-65
2022/12/23 04:39:26;;;;;;;44.53;31.58;;;;;;;9.18;100.00;100455.00;5049648;28;20033;-65
2022/12/23 04:41:52;;;;;;;43.60;33.63;;;;;;;9.14;100.00;100440.19;5033179;28;20412;-66
2022/12/23 04:44:17;;;;;;;47.55;31.65;;;;;;;9.14;100.00;100436.69;5050154;28;20033;-65
2022/12/23 04:46:43;;;;;;;46.13;30.67;;;;;;;9.14;100.00;100431.38;5033748;28;20032;-65
2022/12/23 04:49:08;;;;;;;46.63;31.55;;;;;;;9.13;100.00;100425.25;5050037;28;20020;-66
2022/12/23 04:51:34;;;;;;;48.22;32.30;;;;;;;9.15;100.00;100426.00;5051041;28;20033;-66
2022/12/23 04:54:00;;;;;;;47.47;32.03;;;;;;;9.16;100.00;100434.81;5050231;28;20037;-65
2022/12/23 04:56:25;;;;;;;45.70;31.20;;;;;;;9.16;100.00;100422.38;5033150;28;20037;-66
2022/12/23 04:58:51;;;;;;;44.20;31.52;;;;;;;9.16;100.00;100418.88;5049948;28;20381;-66
2022/12/23 05:01:21;;;;;;;44.30;30.23;;;;;;;9.14;100.00;100413.66;5050175;28;20041;-66
2022/12/23 05:03:47;;;;;;;45.72;30.40;;;;;;;9.17;100.00;100412.63;5049029;28;20041;-66
2022/12/23 05:06:12;;;;;;;43.80;30.25;;;;;;;9.18;100.00;100417.00;5049810;28;20032;-66
2022/12/23 05:08:38;;;;;;;44.03;30.33;;;;;;;9.15;100.00;100415.38;5016021;28;20053;-65
2022/12/23 05:11:03;;;;;;;43.47;29.08;;;;;;;9.15;100.00;100415.38;5036065;28;20033;-65
2022/12/23 05:13:29;;;;;;;44.60;30.08;;;;;;;9.15;100.00;100415.38;5033719;28;20025;-64
2022/12/23 05:15:57;;;;;;;40.70;28.50;;;;;;;9.14;100.00;100413.66;5043738;28;20048;-66
2022/12/23 05:18:22;;;;;;;43.08;30.20;;;;;;;9.16;100.00;100424.19;5053585;28;20025;-66
2022/12/23 05:20:49;;;;;;;41.20;30.05;;;;;;;9.15;100.00;100435.75;5053328;28;20112;-65
2022/12/23 05:23:15;;;;;;;42.15;30.52;;;;;;;9.11;100.00;100435.09;5054458;28;20052;-66
2022/12/23 05:25:41;;;;;;;42.45;30.30;;;;;;;9.15;100.00;100451.66;5054540;28;20102;-66
2022/12/23 05:28:09;;;;;;;44.45;30.15;;;;;;;9.14;100.00;100453.47;5054969;28;20055;-65
2022/12/23 05:30:35;;;;;;;40.53;30.48;;;;;;;9.18;100.00;100459.44;5054993;28;20021;-66
2022/12/23 05:33:00;;;;;;;39.83;29.70;;;;;;;9.17;100.00;100465.69;5053468;28;20028;-65
2022/12/23 05:35:27;;;;;;;46.72;30.00;;;;;;;9.20;100.00;100466.34;5054605;28;20082;-66
2022/12/23 05:37:56;;;;;;;46.33;30.80;;;;;;;9.18;100.00;100470.91;5054709;28;20502;-65
2022/12/23 05:40:22;;;;;;;42.42;30.40;;;;;;;9.17;100.00;100471.00;5054189;28;20024;-64
2022/12/23 05:42:47;;;;;;;45.05;29.80;;;;;;;9.18;100.00;100472.72;5053433;28;20124;-65
2022/12/23 05:45:13;;;;;;;41.88;29.98;;;;;;;9.17;100.00;100474.50;5053216;28;20032;-66
2022/12/23 05:47:39;;;;;;;41.42;30.15;;;;;;;9.20;100.00;100476.94;5035479;28;20027;-65
2022/12/23 05:50:05;;;;;;;43.92;31.58;;;;;;;9.18;100.00;100478.03;5071696;28;20064;-65
2022/12/23 05:52:30;;;;;;;45.67;31.63;;;;;;;9.18;100.00;100462.94;5063813;28;21900;-66
2022/12/23 05:54:56;;;;;;;42.90;33.13;;;;;;;9.19;100.00;100455.84;5040741;28;20119;-66
2022/12/23 05:57:21;;;;;;;45.60;33.28;;;;;;;9.18;100.00;100456.78;5033044;28;20540;-65
2022/12/23 05:59:47;;;;;;;47.35;35.00;;;;;;;9.19;100.00;100455.84;5050928;28;20032;-66
2022/12/23 06:02:13;;;;;;;46.80;35.38;;;;;;;9.13;100.00;100443.81;5053327;28;20116;-66
2022/12/23 06:04:39;;;;;;;49.28;35.58;;;;;;;9.18;100.00;100448.84;5058423;28;20055;-65
2022/12/23 06:07:05;;;;;;;53.35;37.95;;;;;;;9.14;100.00;100437.53;5047831;28;20021;-65
2022/12/23 06:09:31;;;;;;;53.65;38.25;;;;;;;9.17;100.00;100444.47;5033583;28;20493;-66
2022/12/23 06:11:59;;;;;;;58.78;37.80;;;;;;;9.15;100.00;100427.78;5049517;28;20476;-65
2022/12/23 06:14:24;;;;;;;59.85;39.38;;;;;;;9.15;100.00;100428.66;5035562;28;20444;-66
2022/12/23 06:16:50;;;;;;;56.90;39.63;;;;;;;9.15;100.00;100430.44;5036238;28;20072;-66
2022/12/23 06:19:17;;;;;;;58.35;40.83;;;;;;;9.14;100.00;100426.94;5051685;28;20032;-65
2022/12/23 06:21:43;;;;;;;53.55;40.63;;;;;;;9.13;100.00;100421.75;5053058;28;20029;-65
2022/12/23 06:24:11;;;;;;;54.95;38.28;;;;;;;9.14;100.00;100421.63;5051720;28;20049;-65
2022/12/23 06:26:37;;;;;;;57.90;40.40;;;;;;;9.14;100.00;100418.13;5052256;28;20044;-65
2022/12/23 06:29:02;;;;;;;63.47;42.90;;;;;;;9.15;100.00;100426.00;5052410;28;20036;-66
2022/12/23 06:31:28;;;;;;;62.95;40.47;;;;;;;9.18;100.00;100427.63;5052719;28;20078;-65
2022/12/23 06:33:53;;;;;;;60.88;40.80;;;;;;;9.15;100.00;100433.09;5053561;28;20021;-65
2022/12/23 06:36:19;;;;;;;65.75;41.58;;;;;;;9.14;100.00;100436.69;5052822;28;20119;-66
2022/12/23 06:38:44;;;;;;;61.95;41.10;;;;;;;9.15;100.00;100444.56;5052073;28;20431;-66
2022/12/23 06:41:10;;;;;;;58.92;42.03;;;;;;;9.14;100.00;100439.34;5052399;28;20035;-66
2022/12/23 06:43:36;;;;;;;65.68;42.70;;;;;;;9.14;100.00;100440.19;5052213;28;20254;-66
2022/12/23 06:46:01;;;;;;;59.17;41.35;;;;;;;9.15;100.00;100443.69;5035252;28;20119;-65
2022/12/23 06:48:27;;;;;;;63.13;41.67;;;;;;;9.14;100.00;100453.47;5035120;28;20028;-65
2022/12/23 06:50:55;;;;;;;62.83;42.13;;;;;;;9.15;100.00;100460.50;5051717;28;20123;-66
2022/12/23 06:53:20;;;;;;;62.03;43.58;;;;;;;9.16;100.00;100464.00;5052828;28;20033;-66
2022/12/23 06:55:48;;;;;;;67.50;43.42;;;;;;;9.17;100.00;100460.38;5052170;28;20388;-65
2022/12/23 06:58:14;;;;;;;61.83;43.10;;;;;;;9.17;100.00;100477.16;5052478;28;20055;-65
2022/12/23 07:00:39;;;;;;;68.22;46.17;;;;;;;9.11;100.00;100469.56;5034836;28;20037;-65
2022/12/23 07:03:04;;;;;;;69.97;45.60;;;;;;;9.19;100.00;100493.84;5051541;28;20520;-66
2022/12/23 07:05:34;;;;;;;68.95;43.40;;;;;;;9.11;100.00;100496.09;5052892;28;20024;-66
2022/12/23 07:08:00;;;;;;;65.43;45.55;;;;;;;9.13;100.00;100507.47;5052238;28;20037;-66
2022/12/23 07:10:26;;;;;;;64.68;45.65;;;;;;;9.15;100.00;100516.22;5052987;28;20043;-65
2022/12/23 07:12:51;;;;;;;68.30;43.08;;;;;;;9.13;100.00;100504.81;5035290;28;20115;-66
2022/12/23 07:15:19;;;;;;;63.50;43.28;;;;;;;9.10;100.00;100491.75;5051257;28;20044;-65
2022/12/23 07:17:44;;;;;;;64.38;42.88;;;;;;;9.09;100.00;100480.31;5051214;28;20064;-65
2022/12/23 07:20:13;;;;;;;61.72;41.22;;;;;;;9.09;100.00;100474.16;5058996;28;20116;-65
2022/12/23 07:22:39;;;;;;;64.43;41.85;;;;;;;9.10;100.00;100487.31;5051044;28;20052;-64
2022/12/23 07:25:06;;;;;;;63.75;42.95;;;;;;;9.10;100.00;100479.34;5033432;28;20055;-66
2022/12/23 07:27:32;;;;;;;67.30;43.72;;;;;;;9.10;100.00;100482.00;5050017;28;20029;-65
2022/12/23 07:29:58;;;;;;;64.93;43.17;;;;;;;9.09;100.00;100479.44;5051273;28;20037;-65
2022/12/23 07:32:23;;;;;;;69.78;43.78;;;;;;;9.09;100.00;100488.25;5051262;28;20056;-65
2022/12/23 07:34:48;;;;;;;68.53;43.40;;;;;;;9.10;100.00;100481.16;5034461;28;20040;-66
2022/12/23 07:37:14;;;;;;;68.47;44.78;;;;;;;9.12;100.00;100484.56;5049052;28;20488;-66
2022/12/23 07:39:40;;;;;;;73.60;44.17;;;;;;;9.11;100.00;100474.88;5050649;28;20064;-64
2022/12/23 07:42:08;;;;;;;68.38;44.38;;;;;;;9.13;100.00;100477.47;5034473;28;20514;-65
2022/12/23 07:44:34;;;;;;;75.07;46.30;;;;;;;9.08;100.00;100470.63;5052376;28;20071;-65
2022/12/23 07:47:00;;;;;;;71.43;43.97;;;;;;;9.14;100.00;100476.50;5049931;28;20029;-64
2022/12/23 07:49:28;;;;;;;71.38;44.58;;;;;;;9.11;100.00;100469.56;5033983;28;20025;-65
2022/12/23 07:51:53;;;;;;;72.70;43.13;;;;;;;9.14;100.00;100472.03;5051059;28;20029;-64
2022/12/23 07:54:19;;;;;;;71.95;43.97;;;;;;;9.12;100.00;100473.97;5033773;28;20040;-65
2022/12/23 07:56:45;;;;;;;67.72;42.47;;;;;;;9.11;100.00;100482.84;5050950;28;20163;-65
2022/12/23 07:59:10;;;;;;;73.07;43.45;;;;;;;9.10;100.00;100468.72;5052134;28;20032;-64
2022/12/23 08:01:35;;;;;;;68.15;43.17;;;;;;;9.08;100.00;100473.28;5030343;28;20048;-65
2022/12/23 08:04:01;;;;;;;65.82;41.25;;;;;;;9.09;100.00;100476.81;5051635;28;20032;-64
2022/12/23 08:06:27;;;;;;;63.40;38.38;;;;;;;9.06;100.00;100474.34;5038886;28;20028;-65
2022/12/23 08:08:52;;;;;;;63.55;40.28;;;;;;;9.07;100.00;100457.47;5049551;28;20021;-64
2022/12/23 08:11:18;;;;;;;64.05;40.75;;;;;;;9.06;100.00;100448.66;5033886;28;20503;-64
2022/12/23 08:13:44;;;;;;;57.10;36.78;;;;;;;9.08;100.00;100454.69;5030939;28;20452;-64
2022/12/23 08:16:10;;;;;;;56.13;36.72;;;;;;;9.03;100.00;100447.97;5042012;28;20119;-64
2022/12/23 08:18:38;;;;;;;55.03;35.08;;;;;;;9.08;100.00;100456.50;5051286;28;20029;-64
2022/12/23 08:21:08;;;;;;;53.40;35.83;;;;;;;9.10;100.00;100459.94;5051867;28;20021;-64
2022/12/23 08:23:34;;;;;;;57.67;34.42;;;;;;;9.05;100.00;100454.03;5050705;28;20569;-64
2022/12/23 08:26:23;;;;;;;54.17;35.20;;;;;;;9.07;100.00;100466.28;5050512;28;20045;-65
2022/12/23 08:28:53;;;;;;;54.13;33.95;;;;;;;9.07;100.00;100463.63;5049939;28;20359;-65
2022/12/23 08:31:32;;;;;;;54.35;32.55;;;;;;;9.08;100.00;100464.47;5051496;28;20108;-65
2022/12/23 08:34:00;;;;;;;52.38;31.50;;;;;;;9.09;100.00;100460.88;5049696;28;20435;-65
2022/12/23 08:36:31;;;;;;;50.28;30.60;;;;;;;9.08;100.00;100465.31;5050949;28;20033;-65
2022/12/23 08:38:59;;;;;;;45.45;29.77;;;;;;;9.07;100.00;100458.31;5050509;28;20033;-65
2022/12/23 08:41:28;;;;;;;47.38;29.13;;;;;;;8.99;100.00;100442.03;5050624;28;20020;-64
2022/12/23 08:43:54;;;;;;;52.40;30.75;;;;;;;9.05;100.00;100448.75;5049976;28;20031;-65
2022/12/23 08:46:22;;;;;;;53.33;29.67;;;;;;;9.05;100.00;100448.75;5050781;28;20108;-65
2022/12/23 08:48:47;;;;;;;48.17;29.30;;;;;;;9.04;100.00;100437.28;5058507;28;20029;-65
2022/12/23 08:51:15;;;;;;;46.65;27.90;;;;;;;9.02;100.00;100438.31;5051042;28;20039;-65
2022/12/23 08:53:46;;;;;;;56.35;29.77;;;;;;;9.03;100.00;100440.03;5065646;28;20028;-65
2022/12/23 08:56:19;;;;;;;46.40;29.10;;;;;;;9.02;100.00;100436.53;5063246;28;20047;-65
2022/12/23 08:58:46;;;;;;;46.00;28.20;;;;;;;9.01;100.00;100436.63;5031500;28;20103;-65
2022/12/23 09:01:15;;;;;;;49.13;27.48;;;;;;;9.02;100.00;100439.19;5035958;28;20956;-65
2022/12/23 09:03:41;;;;;;;46.78;28.00;;;;;;;9.04;100.00;100428.47;5035304;28;20063;-65
2022/12/23 09:06:13;;;;;;;43.17;25.75;;;;;;;9.02;100.00;100419.75;5051254;28;20047;-65
2022/12/23 09:08:39;;;;;;;42.78;25.65;;;;;;;9.02;100.00;100399.38;5051523;28;20033;-66
2022/12/23 09:11:08;;;;;;;40.97;25.63;;;;;;;9.02;100.00;100402.03;5060413;28;20142;-65
2022/12/23 09:13:33;;;;;;;39.27;24.03;;;;;;;9.02;100.00;100393.22;5051863;28;20376;-65
2022/12/23 09:15:59;;;;;;;38.90;22.85;;;;;;;9.03;100.00;100400.22;5049023;28;20428;-66
2022/12/23 09:18:27;;;;;;;41.38;23.42;;;;;;;9.03;100.00;100386.97;5049216;28;20099;-66
2022/12/23 09:21:01;;;;;;;37.60;23.27;;;;;;;9.03;100.00;100389.63;5048234;28;20064;-65
2022/12/23 09:23:27;;;;;;;32.88;21.52;;;;;;;9.04;100.00;100380.72;5035613;28;20042;-66
2022/12/23 09:25:53;;;;;;;31.67;19.92;;;;;;;9.02;100.00;100382.63;5031127;28;20033;-65
2022/12/23 09:28:19;;;;;;;33.70;22.13;;;;;;;9.05;100.00;100382.44;5046711;28;20060;-65
2022/12/23 09:30:48;;;;;;;37.05;20.23;;;;;;;9.02;100.00;100380.81;5050689;28;20048;-66
2022/12/23 09:33:13;;;;;;;38.85;20.98;;;;;;;9.07;100.00;100384.03;5049616;28;20033;-65
2022/12/23 09:35:39;;;;;;;32.03;20.08;;;;;;;9.06;100.00;100379.69;5050540;28;20533;-65
2022/12/23 09:38:05;;;;;;;30.98;18.90;;;;;;;9.05;100.00;100372.66;5049007;28;20460;-65
2022/12/23 09:40:37;;;;;;;35.88;18.73;;;;;;;9.03;100.00;100374.59;5033057;28;20473;-66
2022/12/23 09:43:10;;;;;;;28.83;17.80;;;;;;;9.02;100.00;100366.72;5050575;28;20056;-65
2022/12/23 09:46:03;;;;;;;31.48;17.30;;;;;;;9.05;100.00;100366.50;5050126;28;20041;-65
2022/12/23 09:48:34;;;;;;;31.38;18.40;;;;;;;8.96;100.00;100353.84;5050647;28;20025;-65
2022/12/23 09:51:04;;;;;;;31.05;19.27;;;;;;;9.01;100.00;100346.44;5050731;28;20048;-65
2022/12/23 09:53:43;;;;;;;26.95;17.30;;;;;;;9.06;100.00;100347.84;5050775;28;20020;-65
2022/12/23 09:56:46;;;;;;;28.25;17.60;;;;;;;9.06;100.00;100350.50;5053928;28;20029;-65
2022/12/23 09:59:23;;;;;;;27.17;17.92;;;;;;;9.06;100.00;100361.13;5054288;28;20025;-65
2022/12/23 10:02:17;;;;;;;31.02;17.17;;;;;;;9.09;100.00;100360.91;5054378;28;20028;-65
2022/12/23 10:05:19;;;;;;;30.27;17.45;;;;;;;9.15;100.00;100362.34;5054190;28;20017;-65
2022/12/23 10:08:08;;;;;;;31.95;17.15;;;;;;;9.14;100.00;100371.22;5054193;28;20032;-65
2022/12/23 10:10:41;;;;;;;26.55;18.55;;;;;;;9.09;100.00;100352.13;5053788;28;20437;-63
2022/12/23 10:13:17;;;;;;;32.95;18.13;;;;;;;9.09;100.00;100344.16;5052776;28;20047;-65
2022/12/23 10:15:50;;;;;;;32.00;19.30;;;;;;;9.07;100.00;100332.78;5053998;28;20061;-64
2022/12/23 10:18:34;;;;;;;27.67;19.02;;;;;;;9.09;100.00;100339.69;5053733;28;20037;-66
2022/12/23 10:21:15;;;;;;;30.13;19.55;;;;;;;9.10;100.00;100335.25;5053627;28;20365;-66
2022/12/23 10:23:45;;;;;;;29.02;19.60;;;;;;;9.06;100.00;100329.28;5052994;28;20136;-66
2022/12/23 10:26:49;;;;;;;31.48;18.83;;;;;;;9.09;100.00;100304.38;5052266;28;20036;-65
2022/12/23 10:29:18;;;;;;;29.63;19.33;;;;;;;9.08;100.00;100306.16;5052471;28;20515;-65
2022/12/23 10:32:21;;;;;;;25.90;17.98;;;;;;;9.19;100.00;100312.56;5052493;28;20029;-65
2022/12/23 10:34:59;;;;;;;24.30;17.48;;;;;;;9.14;100.00;100293.44;5033548;28;20468;-65
2022/12/23 10:37:28;;;;;;;30.02;18.85;;;;;;;9.18;100.00;100285.19;5033677;28;20021;-66
2022/12/23 10:40:02;;;;;;;25.35;17.65;;;;;;;9.23;100.00;100290.16;5052189;28;20387;-65
2022/12/23 10:42:49;;;;;;;27.00;16.20;;;;;;;9.20;100.00;100280.59;5052339;28;20107;-66
2022/12/23 10:45:26;;;;;;;22.98;16.08;;;;;;;9.18;100.00;100281.69;5053648;28;20028;-66
2022/12/23 10:48:15;;;;;;;25.50;15.52;;;;;;;9.21;100.00;100278.81;5053573;28;20101;-66
2022/12/23 10:50:58;;;;;;;25.63;15.45;;;;;;;9.18;100.00;100265.78;5051769;28;20040;-66
2022/12/23 10:53:53;;;;;;;19.58;14.93;;;;;;;9.20;100.00;100256.72;5052660;28;20029;-65
2022/12/23 10:56:20;;;;;;;23.90;14.48;;;;;;;9.18;100.00;100247.19;5025428;28;20090;-67
2022/12/23 10:58:50;;;;;;;20.60;15.20;;;;;;;9.18;100.00;100249.84;5053144;28;20021;-66
2022/12/23 11:01:17;;;;;;;;;;;;;;;9.26;100.00;100247.50;5053630;28;20025;-65
2022/12/23 11:03:51;;;;;;;23.75;13.52;;;;;;;9.15;100.00;100232.31;5053236;28;19915;-66
2022/12/23 11:06:20;;;;;;;21.80;14.07;;;;;;;9.16;100.00;100219.91;5052852;28;20060;-66
2022/12/23 11:08:46;;;;;;;19.67;12.60;;;;;;;9.17;100.00;100213.63;5052663;28;20033;-65
2022/12/23 11:11:11;;;;;;;22.35;13.20;;;;;;;9.15;100.00;100213.75;5051070;28;20078;-66
2022/12/23 11:13:40;;;;;;;23.17;13.52;;;;;;;9.17;100.00;100218.94;5051212;28;20025;-65
2022/12/23 11:16:27;;;;;;;23.52;13.13;;;;;;;9.19;100.00;100203.78;5052543;28;20427;-65
2022/12/23 11:18:55;;;;;;;19.20;12.00;;;;;;;9.18;100.00;100207.41;5051573;28;20032;-65
2022/12/23 11:21:21;;;;;;;20.98;12.60;;;;;;;9.15;100.00;100219.06;5052802;28;20032;-65
2022/12/23 11:24:06;;;;;;;25.33;13.35;;;;;;;9.17;100.00;100217.13;5055820;28;20110;-65
2022/12/23 11:26:31;;;;;;;17.38;12.23;;;;;;;9.14;100.00;100201.44;5053571;28;20025;-65
2022/12/23 11:29:14;;;;;;;20.23;12.52;;;;;;;9.15;100.00;100197.84;5051152;28;20032;-65
2022/12/23 11:31:44;;;;;;;22.00;12.30;;;;;;;9.10;100.00;100187.53;5056202;28;20029;-66
2022/12/23 11:34:14;;;;;;;20.52;12.90;;;;;;;9.07;100.00;100177.13;5054936;28;20044;-65
2022/12/23 11:36:40;;;;;;;;;;;;;;;9.20;100.00;100187.75;5052342;28;20399;-64
2022/12/23 11:39:08;;;;;;;19.25;11.40;;;;;;;9.15;100.00;100181.91;5051893;28;19909;-64
2022/12/23 11:41:49;;;;;;;21.33;12.05;;;;;;;9.12;100.00;100162.69;5049734;28;20028;-64
2022/12/23 11:44:33;;;;;;;18.65;11.40;;;;;;;9.19;100.00;100164.00;5063007;28;20524;-65
2022/12/23 11:47:23;;;;;;;15.68;11.15;;;;;;;9.17;100.00;100149.97;5048869;28;20088;-65
2022/12/23 11:49:57;;;;;;;21.17;10.15;;;;;;;9.12;100.00;100150.31;5050434;28;20028;-64
2022/12/23 11:52:27;;;;;;;21.83;11.52;;;;;;;9.09;100.00;100146.06;5051970;28;20511;-64
2022/12/23 11:54:58;;;;;;;19.02;11.75;;;;;;;9.10;100.00;100146.91;5051529;28;20039;-65